Time;durP1;ratioP1;P1;durP2;ratioP2;P2;SDS_P1;SDS_P2;PMS_P1;PMS_P2;Temp;Humidity;BMP_temperature;BMP_pressure;BME280_temperature;BME280_humidity;BME280_pressure;Samples;Min_cycle;Max_cycle;Signal;HPM_P1;HPM_P2
2023/08/03 00:02:02;;;;;;;5.20;1.42;;;;;;;21.94;100.00;94869.63;5070706;28;20024;-85
2023/08/03 00:04:27;;;;;;;5.63;1.58;;;;;;;22.10;100.00;94879.31;5068031;28;20036;-86
2023/08/03 00:06:53;;;;;;;5.28;1.50;;;;;;;21.97;100.00;94885.16;5072258;28;20474;-86
2023/08/03 00:09:18;;;;;;;9.18;1.63;;;;;;;21.68;100.00;94877.56;5057634;28;20051;-86
2023/08/03 00:11:44;;;;;;;4.75;1.48;;;;;;;21.77;100.00;94883.22;5075497;28;20021;-86
2023/08/03 00:14:09;;;;;;;6.07;2.42;;;;;;;21.64;100.00;94887.97;5057625;28;20021;-86
2023/08/03 00:16:36;;;;;;;8.80;2.05;;;;;;;21.91;100.00;94892.38;5053171;28;20033;-86
2023/08/03 00:19:01;;;;;;;7.40;1.50;;;;;;;21.66;100.00;94890.38;5055085;28;20089;-86
2023/08/03 00:21:27;;;;;;;6.13;1.50;;;;;;;21.73;100.00;94892.81;5073877;28;20522;-86
2023/08/03 00:23:52;;;;;;;5.70;1.80;;;;;;;21.70;100.00;94886.13;5074048;28;20024;-84
2023/08/03 00:26:18;;;;;;;8.05;1.85;;;;;;;21.94;100.00;94878.47;5065544;28;20748;-86
2023/08/03 00:28:51;;;;;;;7.97;1.85;;;;;;;21.76;100.00;94877.03;5064630;28;20031;-86
2023/08/03 00:31:16;;;;;;;7.13;1.50;;;;;;;21.70;100.00;94877.31;5062427;28;20021;-86
2023/08/03 00:33:42;;;;;;;3.50;1.33;;;;;;;21.28;100.00;94884.28;5047174;28;20487;-86
2023/08/03 00:36:07;;;;;;;4.38;1.77;;;;;;;21.25;100.00;94874.13;5070313;28;20025;-86
2023/08/03 00:38:35;;;;;;;10.48;1.83;;;;;;;21.92;100.00;94877.09;5057042;28;20028;-86
2023/08/03 00:41:00;;;;;;;9.75;2.40;;;;;;;21.55;100.00;94873.50;5065239;28;20012;-85
2023/08/03 00:43:26;;;;;;;7.47;2.10;;;;;;;21.86;100.00;94878.94;5058006;28;20047;-86
2023/08/03 00:45:52;;;;;;;7.15;1.50;;;;;;;21.40;100.00;94876.13;5073811;28;20021;-86
2023/08/03 00:48:19;;;;;;;9.32;2.15;;;;;;;22.04;100.00;94880.34;5069428;28;20029;-86
2023/08/03 00:50:44;;;;;;;9.85;1.98;;;;;;;21.87;100.00;94876.03;5075223;28;20029;-86
2023/08/03 00:53:10;;;;;;;8.30;2.17;;;;;;;21.93;100.00;94876.03;5073590;28;20028;-86
2023/08/03 00:55:36;;;;;;;9.52;2.80;;;;;;;22.06;100.00;94875.53;5057419;28;20035;-86
2023/08/03 00:58:02;;;;;;;8.10;1.85;;;;;;;21.79;100.00;94881.88;5058521;28;20028;-86
2023/08/03 01:00:29;;;;;;;10.05;2.20;;;;;;;21.78;100.00;94882.16;5070743;28;20103;-86
2023/08/03 01:02:54;;;;;;;11.07;2.42;;;;;;;21.84;100.00;94886.47;5058643;28;20549;-85
2023/08/03 01:05:20;;;;;;;9.18;2.85;;;;;;;21.72;100.00;94877.84;5069675;28;20023;-86
2023/08/03 01:07:46;;;;;;;9.98;2.20;;;;;;;21.45;100.00;94875.31;5071204;28;20437;-86
2023/08/03 01:10:11;;;;;;;7.75;2.03;;;;;;;21.90;100.00;94885.41;5089178;28;20571;-86
2023/08/03 01:12:37;;;;;;;6.32;1.58;;;;;;;21.94;100.00;94891.03;5063865;28;20054;-85
2023/08/03 01:15:03;;;;;;;6.38;1.80;;;;;;;22.02;100.00;94885.97;5062714;28;20012;-85
2023/08/03 01:17:28;;;;;;;5.55;1.42;;;;;;;21.80;100.00;94877.34;5056569;28;20024;-86
2023/08/03 01:19:54;;;;;;;8.10;1.77;;;;;;;21.65;100.00;94873.53;5067595;28;20100;-86
2023/08/03 01:22:24;;;;;;;8.48;1.65;;;;;;;21.87;100.00;94875.22;5047027;28;20032;-86
2023/08/03 01:24:50;;;;;;;7.00;1.90;;;;;;;21.53;100.00;94874.81;5044630;28;20031;-86
2023/08/03 01:27:15;;;;;;;9.52;3.13;;;;;;;21.49;100.00;94865.69;5054508;28;20107;-86
2023/08/03 01:29:41;;;;;;;6.95;1.83;;;;;;;21.65;100.00;94868.19;5061407;28;20025;-86
2023/08/03 01:32:07;;;;;;;9.27;2.95;;;;;;;21.37;100.00;94869.41;5051116;28;20606;-85
2023/08/03 01:34:33;;;;;;;11.90;2.08;;;;;;;21.50;100.00;94864.66;5053487;28;20021;-85
2023/08/03 01:36:58;;;;;;;12.68;3.08;;;;;;;21.58;100.00;94866.81;5060065;28;20016;-86
2023/08/03 01:39:24;;;;;;;13.10;2.30;;;;;;;21.47;100.00;94859.81;5070410;28;20020;-86
2023/08/03 01:41:50;;;;;;;12.27;3.20;;;;;;;21.30;100.00;94876.84;5056447;28;20025;-86
2023/08/03 01:44:21;;;;;;;7.30;1.83;;;;;;;21.36;100.00;94870.47;5059896;28;20029;-86
2023/08/03 01:46:48;;;;;;;11.30;2.20;;;;;;;21.30;100.00;94873.34;5055204;28;20033;-85
2023/08/03 01:49:14;;;;;;;15.77;2.47;;;;;;;21.25;100.00;94866.09;5058389;28;20122;-86
2023/08/03 01:51:40;;;;;;;10.05;2.70;;;;;;;21.24;100.00;94867.16;5057620;28;20040;-86
2023/08/03 01:54:07;;;;;;;7.68;2.08;;;;;;;21.53;100.00;94861.44;5072253;28;20020;-86
2023/08/03 01:56:32;;;;;;;8.48;2.10;;;;;;;21.16;100.00;94870.34;5077125;28;20044;-86
2023/08/03 01:58:58;;;;;;;14.93;2.83;;;;;;;21.49;100.00;94876.41;5068357;28;20086;-84
2023/08/03 02:01:24;;;;;;;10.00;1.60;;;;;;;21.23;100.00;94889.63;5060335;28;20016;-85
2023/08/03 02:03:58;;;;;;;10.98;2.13;;;;;;;21.16;100.00;94883.72;5055976;28;20017;-86
2023/08/03 02:06:24;;;;;;;11.82;2.40;;;;;;;21.22;100.00;94890.66;5074380;28;20023;-85
2023/08/03 02:08:50;;;;;;;10.77;2.22;;;;;;;20.91;100.00;94890.47;5062533;28;20017;-85
2023/08/03 02:11:22;;;;;;;8.25;1.80;;;;;;;21.02;100.00;94893.22;5059531;28;20036;-86
2023/08/03 02:13:48;;;;;;;8.88;1.30;;;;;;;20.70;100.00;94892.22;5060349;28;20025;-85
2023/08/03 02:16:15;;;;;;;7.38;1.90;;;;;;;20.67;100.00;94886.56;5066667;28;20055;-86
2023/08/03 02:18:40;;;;;;;5.57;1.75;;;;;;;21.00;100.00;94898.03;5072009;28;20048;-86
2023/08/03 02:21:07;;;;;;;10.45;2.13;;;;;;;20.89;100.00;94887.28;5058865;28;20029;-86
2023/08/03 02:23:33;;;;;;;6.55;1.40;;;;;;;20.64;100.00;94895.91;5075096;28;20029;-85
2023/08/03 02:26:02;;;;;;;8.48;2.63;;;;;;;20.70;100.00;94884.19;5071329;28;20033;-84
2023/08/03 02:28:28;;;;;;;9.07;1.65;;;;;;;20.92;100.00;94893.97;5056441;28;20027;-85
2023/08/03 02:30:53;;;;;;;6.32;1.52;;;;;;;21.02;100.00;94879.84;5075616;28;20398;-84
2023/08/03 02:33:19;;;;;;;9.27;1.73;;;;;;;20.83;100.00;94882.97;5066362;28;20024;-85
2023/08/03 02:36:02;;;;;;;11.98;1.75;;;;;;;20.94;100.00;94889.97;5071477;28;20027;-85
2023/08/03 02:38:28;;;;;;;7.72;1.48;;;;;;;20.68;100.00;94888.16;5042095;28;20024;-86
2023/08/03 02:40:57;;;;;;;5.43;1.25;;;;;;;21.05;100.00;94896.19;5057741;28;20023;-86
2023/08/03 02:43:27;;;;;;;8.20;1.33;;;;;;;20.99;100.00;94899.09;5053926;28;20041;-86
2023/08/03 02:45:53;;;;;;;6.72;1.25;;;;;;;21.25;100.00;94906.19;5072414;28;20031;-86
2023/08/03 02:48:19;;;;;;;8.15;1.70;;;;;;;20.87;100.00;94910.78;5081365;28;20025;-85
2023/08/03 02:50:46;;;;;;;12.43;1.75;;;;;;;21.04;100.00;94909.81;5053421;28;20510;-86
2023/08/03 02:53:13;;;;;;;7.93;1.70;;;;;;;20.81;100.00;94909.13;5063694;28;20543;-86
2023/08/03 02:55:44;;;;;;;8.30;1.65;;;;;;;20.83;100.00;94920.38;5050014;28;20024;-86
2023/08/03 03:27:53;;;;;;;6.97;1.08;;;;;;;20.79;100.00;94923.78;5062139;28;20493;-86
2023/08/03 03:30:21;;;;;;;9.43;1.55;;;;;;;20.89;100.00;94940.72;5055706;28;20036;-86
2023/08/03 03:32:47;;;;;;;10.77;2.33;;;;;;;20.68;100.00;94931.72;5070438;28;20029;-86
2023/08/03 03:35:12;;;;;;;8.50;1.80;;;;;;;20.75;100.00;94938.72;5056635;28;20017;-86
2023/08/03 03:37:40;;;;;;;7.75;1.40;;;;;;;20.81;100.00;94927.81;5073895;28;20056;-86
2023/08/03 03:40:07;;;;;;;12.23;3.25;;;;;;;20.78;100.00;94933.66;5057494;28;20028;-86
2023/08/03 03:42:38;;;;;;;8.57;1.93;;;;;;;21.03;100.00;94930.41;5057807;28;20447;-86
2023/08/03 03:45:06;;;;;;;8.90;1.55;;;;;;;20.81;100.00;94935.84;5056606;28;20504;-86
2023/08/03 03:47:34;;;;;;;7.80;1.95;;;;;;;20.67;100.00;94937.31;5053156;28;20024;-86
2023/08/03 03:50:01;;;;;;;6.63;1.70;;;;;;;20.73;100.00;94940.84;5073233;28;20024;-86
2023/08/03 03:52:27;;;;;;;7.35;1.58;;;;;;;20.78;100.00;94941.69;5056495;28;20017;-85
2023/08/03 03:54:52;;;;;;;11.95;1.40;;;;;;;21.09;100.00;94944.59;5053453;28;20023;-86
2023/08/03 03:57:21;;;;;;;7.53;1.63;;;;;;;20.66;100.00;94957.09;5073115;28;20024;-86
2023/08/03 03:59:53;;;;;;;9.27;1.85;;;;;;;21.40;100.00;94946.44;5056402;28;20560;-86
2023/08/03 04:02:18;;;;;;;9.02;1.60;;;;;;;21.11;100.00;94947.81;5048890;28;20028;-86
2023/08/03 04:04:44;;;;;;;6.70;2.38;;;;;;;20.94;100.00;94950.63;5063818;28;20020;-86
2023/08/03 04:07:10;;;;;;;9.90;1.90;;;;;;;20.75;100.00;94949.41;5081157;28;20027;-86
2023/08/03 04:09:35;;;;;;;6.22;1.38;;;;;;;21.19;100.00;94952.69;5054490;28;20032;-86
2023/08/03 04:12:01;;;;;;;5.57;1.10;;;;;;;20.91;100.00;94951.16;5073071;28;20024;-86
2023/08/03 04:14:27;;;;;;;10.23;1.80;;;;;;;20.84;100.00;94943.34;5056298;28;20110;-90
2023/08/03 04:16:53;;;;;;;8.25;1.63;;;;;;;21.28;100.00;94948.47;5057241;28;20020;-87
2023/08/03 04:19:20;;;;;;;9.18;1.70;;;;;;;21.12;100.00;94957.44;5073373;28;20040;-87
2023/08/03 04:21:45;;;;;;;7.65;1.88;;;;;;;20.83;100.00;94947.09;5052237;28;20117;-85
2023/08/03 04:24:11;;;;;;;10.65;1.60;;;;;;;20.87;100.00;94952.72;5073579;28;20028;-85
2023/08/03 04:26:36;;;;;;;4.90;1.40;;;;;;;20.74;100.00;94956.63;5055350;28;20397;-85
2023/08/03 04:29:05;;;;;;;9.63;2.13;;;;;;;20.95;100.00;94957.59;5071501;28;20489;-85
2023/08/03 04:31:31;;;;;;;8.40;1.70;;;;;;;20.99;100.00;94960.56;5071838;28;20039;-84
2023/08/03 04:33:57;;;;;;;9.07;1.98;;;;;;;21.17;100.00;94957.50;5064256;28;20032;-84
2023/08/03 04:36:25;;;;;;;7.55;1.67;;;;;;;21.12;100.00;94973.47;5047520;28;20012;-85
2023/08/03 04:38:51;;;;;;;10.55;3.97;;;;;;;21.09;100.00;94974.00;5071756;28;20343;-84
2023/08/03 04:41:16;;;;;;;9.02;1.65;;;;;;;21.35;100.00;94973.16;5072780;28;20035;-84
2023/08/03 04:43:45;;;;;;;14.13;6.22;;;;;;;21.07;100.00;94987.63;5063723;28;20024;-84
2023/08/03 04:46:11;;;;;;;6.55;1.17;;;;;;;20.63;100.00;94978.97;5069715;28;20058;-84
2023/08/03 04:48:38;;;;;;;6.63;1.40;;;;;;;21.06;100.00;94971.81;5048362;28;20047;-84
2023/08/03 04:51:10;;;;;;;7.03;1.45;;;;;;;21.21;100.00;94988.00;5054618;28;20459;-84
2023/08/03 04:53:37;;;;;;;5.95;1.42;;;;;;;21.30;100.00;94985.66;5055234;28;20099;-84
2023/08/03 04:56:03;;;;;;;6.30;1.20;;;;;;;21.09;100.00;95001.56;5054646;28;20036;-84
2023/08/03 04:58:29;;;;;;;12.38;1.70;;;;;;;21.42;100.00;94999.66;5071503;28;20028;-85
2023/08/03 05:00:55;;;;;;;6.72;1.30;;;;;;;21.16;100.00;94999.47;5063422;28;20021;-84
2023/08/03 05:03:21;;;;;;;8.20;1.17;;;;;;;20.89;100.00;95004.88;5055878;28;20397;-84
2023/08/03 05:05:49;;;;;;;7.07;1.67;;;;;;;21.33;100.00;95004.66;5059747;28;20399;-84
2023/08/03 05:08:18;;;;;;;5.78;1.20;;;;;;;20.85;100.00;95010.94;5071423;28;20028;-84
2023/08/03 05:10:52;;;;;;;5.07;1.05;;;;;;;20.99;100.00;94997.97;5051619;28;20453;-83
2023/08/03 05:13:21;;;;;;;7.32;1.20;;;;;;;21.03;100.00;95013.25;5053693;28;20026;-83
2023/08/03 05:16:00;;;;;;;8.07;2.03;;;;;;;21.50;100.00;95011.78;5069789;28;20043;-84
2023/08/03 05:18:25;;;;;;;5.28;1.20;;;;;;;21.45;100.00;95015.19;5077360;28;20111;-84
2023/08/03 05:20:52;;;;;;;2.75;0.77;;;;;;;21.54;100.00;95020.88;5074132;28;20055;-83
2023/08/03 05:23:19;;;;;;;4.13;1.10;;;;;;;21.50;100.00;95019.81;5070324;28;20025;-84
2023/08/03 05:25:45;;;;;;;5.00;0.90;;;;;;;21.75;100.00;95022.63;5054776;28;20121;-84
2023/08/03 05:28:11;;;;;;;5.28;1.15;;;;;;;21.31;100.00;95027.38;5075071;28;20032;-84
2023/08/03 05:30:36;;;;;;;3.22;0.95;;;;;;;21.42;100.00;95032.56;5051864;28;20029;-84
2023/08/03 05:33:02;;;;;;;6.63;1.10;;;;;;;21.82;100.00;95036.56;5072365;28;20028;-84
2023/08/03 05:35:28;;;;;;;4.55;1.00;;;;;;;22.02;100.00;95024.38;5074883;28;20086;-84
2023/08/03 05:37:54;;;;;;;7.53;1.10;;;;;;;21.77;100.00;95038.44;5073516;28;20025;-85
2023/08/03 05:40:23;;;;;;;3.17;0.65;;;;;;;22.54;100.00;95040.41;5076207;28;20425;-85
2023/08/03 05:43:00;;;;;;;3.05;0.80;;;;;;;22.77;100.00;95039.13;5068286;28;20076;-85
2023/08/03 05:45:48;;;;;;;4.78;1.17;;;;;;;22.17;100.00;95016.44;5070636;28;20086;-86
2023/08/03 05:48:22;;;;;;;5.45;1.52;;;;;;;22.47;100.00;95044.41;5056707;28;20021;-85
2023/08/03 05:50:55;;;;;;;2.78;0.70;;;;;;;22.06;100.00;95049.53;5077942;28;20031;-84
2023/08/03 05:53:21;;;;;;;5.28;0.93;;;;;;;21.28;100.00;95033.22;5049126;28;20047;-85
2023/08/03 05:55:47;;;;;;;2.88;0.80;;;;;;;21.04;100.00;95049.63;5067224;28;20486;-85
2023/08/03 05:58:15;;;;;;;5.55;0.75;;;;;;;22.24;100.00;95041.09;5044747;28;20032;-85
2023/08/03 06:00:42;;;;;;;7.03;1.25;;;;;;;22.07;100.00;95035.13;5058154;28;20021;-85
2023/08/03 06:03:13;;;;;;;5.57;1.00;;;;;;;22.04;100.00;95046.34;5052970;28;20025;-84
2023/08/03 06:05:47;;;;;;;5.18;0.90;;;;;;;21.58;100.00;95036.16;5072242;28;20024;-84
2023/08/03 06:08:23;;;;;;;2.78;0.70;;;;;;;21.76;100.00;95056.31;5069750;28;20475;-84
2023/08/03 06:11:00;;;;;;;4.22;0.80;;;;;;;21.93;100.00;95056.19;5072917;28;20036;-85
2023/08/03 06:13:33;;;;;;;4.80;0.85;;;;;;;21.95;100.00;95059.41;5061047;28;20016;-84
2023/08/03 06:16:03;;;;;;;4.38;0.70;;;;;;;21.76;100.00;95060.88;5058075;28;20025;-85
2023/08/03 06:18:30;;;;;;;3.00;0.85;;;;;;;21.81;100.00;95064.41;5065673;28;20031;-86
2023/08/03 06:20:56;;;;;;;7.43;1.90;;;;;;;21.98;100.00;95068.78;5063102;28;20021;-86
2023/08/03 06:23:28;;;;;;;7.75;1.13;;;;;;;22.29;100.00;95072.44;5073298;28;20385;-84
2023/08/03 06:25:55;;;;;;;4.45;1.00;;;;;;;22.28;100.00;95074.31;5070068;28;20016;-85
2023/08/03 06:28:23;;;;;;;4.10;0.90;;;;;;;22.28;100.00;95068.97;5065451;28;20060;-85
2023/08/03 06:30:51;;;;;;;6.10;1.35;;;;;;;23.82;100.00;95082.69;5056775;28;20558;-84
2023/08/03 06:33:21;;;;;;;4.80;1.35;;;;;;;23.42;100.00;95081.59;5074111;28;20032;-84
2023/08/03 06:35:48;;;;;;;5.18;1.23;;;;;;;23.22;100.00;95088.56;5073906;28;20113;-84
2023/08/03 06:38:16;;;;;;;3.45;0.70;;;;;;;23.60;100.00;95086.41;5080946;28;20025;-83
2023/08/03 06:40:42;;;;;;;7.18;1.85;;;;;;;22.93;100.00;95090.91;5074763;28;20025;-84
2023/08/03 06:43:09;;;;;;;5.10;0.95;;;;;;;23.25;100.00;95088.03;5073754;28;20126;-84
2023/08/03 06:45:35;;;;;;;7.38;1.50;;;;;;;23.29;100.00;95081.03;5073630;28;20024;-84
2023/08/03 06:48:02;;;;;;;4.50;1.35;;;;;;;23.08;100.00;95082.09;5074704;28;20395;-84
2023/08/03 06:50:43;;;;;;;6.13;1.67;;;;;;;23.58;100.00;95087.78;5073538;28;20020;-84
2023/08/03 06:53:09;;;;;;;3.88;0.95;;;;;;;23.75;100.00;95096.38;5057162;28;20074;-84
2023/08/03 06:55:35;;;;;;;3.22;0.75;;;;;;;23.82;100.00;95099.59;5057093;28;20024;-84
2023/08/03 06:58:00;;;;;;;5.97;0.80;;;;;;;24.04;100.00;95087.72;5052530;28;20032;-84
2023/08/03 07:00:26;;;;;;;3.40;1.08;;;;;;;24.67;99.67;95086.19;5073423;28;20021;-84
2023/08/03 07:02:52;;;;;;;5.40;1.30;;;;;;;24.66;93.89;95098.03;5069951;28;20082;-84
2023/08/03 07:05:18;;;;;;;3.22;1.23;;;;;;;25.78;86.76;95091.13;5071290;28;20033;-84
2023/08/03 07:07:43;;;;;;;3.38;0.82;;;;;;;25.67;83.88;95089.63;5056280;28;20027;-84
2023/08/03 07:10:09;;;;;;;6.28;1.27;;;;;;;25.49;86.47;95087.63;5072930;28;20024;-84
2023/08/03 07:12:35;;;;;;;1.65;0.63;;;;;;;25.90;79.95;95096.19;5067138;28;20035;-83
2023/08/03 07:15:02;;;;;;;3.47;0.80;;;;;;;26.20;76.97;95088.88;5054425;28;20032;-84
2023/08/03 07:17:27;;;;;;;5.43;1.15;;;;;;;27.13;72.58;95084.00;5066704;28;20489;-85
2023/08/03 07:19:54;;;;;;;4.72;1.00;;;;;;;26.42;70.46;95091.84;5060339;28;20020;-84
2023/08/03 07:22:24;;;;;;;5.22;0.93;;;;;;;26.46;69.84;95090.22;5055175;28;20033;-85
2023/08/03 07:24:50;;;;;;;2.25;0.82;;;;;;;25.74;69.50;95092.00;5072307;28;20074;-84
2023/08/03 07:27:16;;;;;;;4.28;0.75;;;;;;;26.25;66.79;95094.22;5074955;28;20025;-85
2023/08/03 07:29:42;;;;;;;3.60;0.80;;;;;;;26.85;62.93;95108.09;5056378;28;20032;-84
2023/08/03 07:32:09;;;;;;;4.93;1.25;;;;;;;26.23;66.69;95113.38;5054250;28;20128;-84
2023/08/03 07:34:35;;;;;;;5.10;1.00;;;;;;;24.98;67.95;95120.19;5056433;28;20105;-84
2023/08/03 07:37:01;;;;;;;3.90;0.90;;;;;;;24.31;73.20;95127.69;5073072;28;20032;-85
2023/08/03 07:39:27;;;;;;;5.47;1.40;;;;;;;26.12;65.05;95129.91;5072770;28;20036;-85
2023/08/03 07:41:52;;;;;;;5.88;1.00;;;;;;;24.90;68.29;95126.97;5071668;28;20600;-85
2023/08/03 07:44:19;;;;;;;3.83;1.13;;;;;;;24.64;65.69;95131.66;5072736;28;20565;-84
2023/08/03 07:46:46;;;;;;;4.03;1.20;;;;;;;24.97;64.02;95132.06;5053185;28;20194;-84
2023/08/03 07:49:11;;;;;;;4.75;1.02;;;;;;;26.51;58.19;95117.13;5071814;28;20149;-85
2023/08/03 07:51:37;;;;;;;5.05;1.45;;;;;;;26.12;62.33;95113.75;5078353;28;20032;-85
2023/08/03 07:54:02;;;;;;;3.53;0.98;;;;;;;27.06;57.43;95122.09;5084115;28;20020;-85
2023/08/03 07:56:36;;;;;;;4.28;0.85;;;;;;;26.28;59.91;95139.47;5057469;28;20032;-85
2023/08/03 07:59:03;;;;;;;3.38;0.88;;;;;;;25.44;63.44;95128.84;5056202;28;20021;-84
2023/08/03 08:01:29;;;;;;;2.35;0.68;;;;;;;26.66;58.49;95131.53;5074039;28;20025;-85
2023/08/03 08:03:54;;;;;;;4.70;1.30;;;;;;;26.40;58.68;95122.91;5056039;28;20073;-85
2023/08/03 08:06:20;;;;;;;3.30;0.82;;;;;;;26.04;58.07;95128.66;5055977;28;20028;-85
2023/08/03 08:08:47;;;;;;;5.55;1.23;;;;;;;26.98;56.54;95118.19;5046684;28;20429;-85
2023/08/03 08:11:15;;;;;;;4.03;0.77;;;;;;;27.03;55.78;95130.81;5061563;28;20089;-84
2023/08/03 08:13:41;;;;;;;5.18;0.82;;;;;;;27.87;54.29;95125.56;5055567;28;20666;-85
2023/08/03 08:16:09;;;;;;;4.18;1.15;;;;;;;28.37;53.24;95131.16;5071041;28;20024;-84
2023/08/03 08:18:35;;;;;;;6.78;2.90;;;;;;;27.53;54.95;95139.28;5072368;28;20016;-85
2023/08/03 08:21:05;;;;;;;2.78;1.08;;;;;;;26.58;58.23;95148.34;5072918;28;20362;-85
2023/08/03 08:23:31;;;;;;;5.13;1.00;;;;;;;25.62;61.24;95149.72;5072769;28;20024;-84
2023/08/03 08:25:56;;;;;;;3.20;1.23;;;;;;;25.68;64.61;95163.13;5055145;28;20016;-84
2023/08/03 08:28:22;;;;;;;2.75;0.88;;;;;;;24.85;68.49;95162.78;5072121;28;20107;-84
2023/08/03 08:30:48;;;;;;;5.10;1.02;;;;;;;25.42;66.94;95174.09;5072074;28;20099;-84
2023/08/03 08:33:15;;;;;;;3.28;0.95;;;;;;;25.12;66.16;95167.00;5063142;28;20076;-84
2023/08/03 08:35:41;;;;;;;2.33;0.88;;;;;;;25.24;68.99;95175.50;5066634;28;20029;-84
2023/08/03 08:38:09;;;;;;;3.28;1.20;;;;;;;25.37;68.42;95177.59;5063669;28;20120;-84
2023/08/03 08:40:36;;;;;;;3.45;0.90;;;;;;;25.88;68.79;95173.75;5072169;28;20487;-84
2023/08/03 08:43:02;;;;;;;3.38;1.02;;;;;;;25.74;69.60;95178.16;5071252;28;20029;-84
2023/08/03 08:45:35;;;;;;;5.78;1.45;;;;;;;24.72;71.38;95187.56;5072174;28;20070;-84
2023/08/03 08:48:02;;;;;;;2.25;0.90;;;;;;;24.83;71.41;95191.81;5069412;28;20020;-84
2023/08/03 08:50:29;;;;;;;4.35;1.00;;;;;;;24.78;74.51;95189.16;5051683;28;20029;-84
2023/08/03 08:52:55;;;;;;;4.93;0.77;;;;;;;24.38;75.33;95181.94;5064002;28;20025;-84
2023/08/03 08:55:27;;;;;;;4.35;0.98;;;;;;;25.53;72.50;95181.00;5074387;28;20108;-84
2023/08/03 08:57:53;;;;;;;2.88;0.90;;;;;;;24.83;74.51;95170.31;5057630;28;20055;-84
2023/08/03 09:00:20;;;;;;;3.58;0.80;;;;;;;25.53;74.69;95188.28;5059607;28;20012;-84
2023/08/03 09:02:47;;;;;;;5.18;0.88;;;;;;;26.15;69.10;95200.22;5055295;28;20023;-84
2023/08/03 09:05:21;;;;;;;1.63;0.50;;;;;;;26.26;66.47;95187.47;5078332;28;20027;-84
2023/08/03 09:08:02;;;;;;;1.98;0.70;;;;;;;26.74;64.91;95174.06;5075884;28;20028;-83
2023/08/03 09:10:28;;;;;;;4.65;0.98;;;;;;;26.83;64.64;95174.22;5075249;28;20028;-84
2023/08/03 09:12:54;;;;;;;2.72;0.85;;;;;;;27.64;59.47;95192.06;5064263;28;20020;-84
2023/08/03 09:15:40;;;;;;;2.42;0.60;;;;;;;27.82;59.57;95181.56;5067981;28;20031;-84
2023/08/03 09:18:07;;;;;;;2.67;0.60;;;;;;;27.45;56.75;95177.75;5057525;28;20051;-84
2023/08/03 09:20:34;;;;;;;3.75;1.00;;;;;;;28.83;53.97;95186.31;5054672;28;20021;-84
2023/08/03 09:23:01;;;;;;;3.95;1.13;;;;;;;27.71;55.71;95170.09;5055390;28;20477;-84
2023/08/03 09:25:27;;;;;;;5.57;1.27;;;;;;;28.70;54.42;95189.81;5058669;28;20069;-84
2023/08/03 09:27:56;;;;;;;3.25;0.65;;;;;;;28.75;51.79;95182.41;5074961;28;20382;-85
2023/08/03 09:30:22;;;;;;;6.50;1.13;;;;;;;27.99;55.38;95179.13;5057869;28;20021;-84
2023/08/03 09:32:48;;;;;;;1.95;0.60;;;;;;;27.73;57.04;95190.31;5054376;28;20644;-84
2023/08/03 09:35:33;;;;;;;3.17;0.70;;;;;;;27.38;59.03;95188.13;5057868;28;20033;-84
2023/08/03 09:37:59;;;;;;;2.83;0.65;;;;;;;27.37;58.80;95202.72;5058200;28;20029;-83
2023/08/03 09:40:25;;;;;;;2.63;1.20;;;;;;;27.97;55.81;95202.97;5074940;28;20082;-84
2023/08/03 09:42:53;;;;;;;4.47;1.00;;;;;;;26.45;61.62;95212.59;5075901;28;20020;-84
2023/08/03 09:45:19;;;;;;;5.88;1.45;;;;;;;26.71;59.52;95215.09;5052651;28;20021;-84
2023/08/03 09:47:45;;;;;;;3.15;0.93;;;;;;;27.56;59.61;95216.22;5074651;28;20032;-84
2023/08/03 09:50:11;;;;;;;3.90;0.90;;;;;;;27.50;57.95;95220.91;5057809;28;20236;-84
2023/08/03 09:52:46;;;;;;;2.92;0.82;;;;;;;26.83;58.85;95226.28;5075482;28;20485;-84
2023/08/03 09:55:20;;;;;;;2.47;0.55;;;;;;;27.31;60.37;95225.47;5074536;28;20031;-84
2023/08/03 09:58:12;;;;;;;3.60;1.27;;;;;;;27.07;57.77;95230.88;5065965;28;20017;-84
2023/08/03 10:00:43;;;;;;;2.83;0.38;;;;;;;27.47;58.79;95224.19;5050638;28;20029;-84
2023/08/03 10:03:10;;;;;;;4.25;0.90;;;;;;;25.99;62.88;95239.97;5064128;28;20174;-84
2023/08/03 10:06:00;;;;;;;2.08;0.50;;;;;;;26.69;62.33;95239.63;5069655;28;20070;-84
2023/08/03 10:08:44;;;;;;;4.22;1.45;;;;;;;26.90;58.45;95232.13;5047029;28;20036;-83
2023/08/03 10:11:12;;;;;;;2.75;0.77;;;;;;;27.02;58.61;95235.22;5056974;28;20023;-84
2023/08/03 10:13:52;;;;;;;2.33;0.70;;;;;;;26.73;60.23;95239.88;5066494;28;20059;-84
2023/08/03 10:16:19;;;;;;;3.28;0.85;;;;;;;26.91;58.38;95243.72;5073334;28;20108;-84
2023/08/03 10:18:45;;;;;;;2.33;0.93;;;;;;;26.81;58.56;95239.25;5069260;28;20379;-84
2023/08/03 10:21:11;;;;;;;1.92;0.55;;;;;;;26.87;58.69;95235.41;5055325;28;20106;-84
2023/08/03 10:23:42;;;;;;;3.05;0.70;;;;;;;26.69;59.34;95252.31;5073883;28;20074;-84
2023/08/03 10:26:07;;;;;;;1.83;0.70;;;;;;;27.33;58.05;95253.81;5053141;28;20053;-84
2023/08/03 10:28:39;;;;;;;1.73;0.80;;;;;;;28.30;55.50;95246.19;5070672;28;20481;-86
2023/08/03 10:31:15;;;;;;;2.92;0.50;;;;;;;27.98;55.50;95249.69;5071730;28;20103;-87
2023/08/03 10:33:46;;;;;;;7.35;1.23;;;;;;;29.08;55.59;95255.44;5074420;28;20104;-84
2023/08/03 10:36:27;;;;;;;2.25;0.68;;;;;;;28.90;51.78;95238.94;5073522;28;20032;-87
2023/08/03 10:39:37;;;;;;;3.38;0.68;;;;;;;28.69;53.31;95251.25;5057951;28;20056;-86
2023/08/03 10:42:25;;;;;;;6.47;0.95;;;;;;;27.78;56.52;95237.28;5072696;28;20028;-85
2023/08/03 10:44:51;;;;;;;1.63;0.50;;;;;;;28.29;54.10;95231.88;5053430;28;20060;-86
2023/08/03 10:47:24;;;;;;;3.53;0.40;;;;;;;27.77;55.60;95238.38;5066159;28;20036;-85
2023/08/03 10:49:52;;;;;;;3.05;0.70;;;;;;;28.41;54.38;95247.69;5054305;28;20031;-86
2023/08/03 10:52:29;;;;;;;3.08;0.88;;;;;;;27.40;54.49;95256.16;5057164;28;20035;-86
2023/08/03 10:54:57;;;;;;;4.10;0.60;;;;;;;26.80;56.83;95243.84;5032620;28;20478;-84
2023/08/03 10:57:29;;;;;;;2.88;0.60;;;;;;;27.61;56.00;95240.47;5064324;28;20040;-86
2023/08/03 11:00:01;;;;;;;4.03;0.73;;;;;;;27.31;56.31;95258.69;5068157;28;20056;-86
2023/08/03 11:02:32;;;;;;;2.85;0.60;;;;;;;26.96;57.45;95247.19;5065636;28;20183;-86
2023/08/03 11:05:06;;;;;;;1.13;0.50;;;;;;;27.27;57.10;95246.84;5051368;28;20020;-85
2023/08/03 11:07:37;;;;;;;2.88;0.50;;;;;;;28.14;56.85;95253.78;5072080;28;20024;-85
2023/08/03 11:10:06;;;;;;;5.88;1.33;;;;;;;26.94;57.65;95245.84;5073065;28;20030;-86
2023/08/03 11:12:44;;;;;;;1.85;0.63;;;;;;;27.83;57.37;95253.41;5071069;28;20052;-84
2023/08/03 11:15:15;;;;;;;3.03;0.60;;;;;;;27.40;54.86;95256.16;5051050;28;21330;-86
2023/08/03 11:17:40;;;;;;;1.80;0.60;;;;;;;28.64;53.92;95252.16;5053450;28;20028;-85
2023/08/03 11:20:12;;;;;;;1.70;0.65;;;;;;;29.24;56.09;95253.19;5068579;28;20467;-85
2023/08/03 11:22:37;;;;;;;3.23;0.87;;;;;;;30.19;50.43;95251.44;5073481;28;20482;-85
2023/08/03 11:25:05;;;;;;;2.72;0.80;;;;;;;29.26;51.96;95259.94;5073487;28;20021;-85
2023/08/03 11:27:40;;;;;;;3.03;0.80;;;;;;;28.50;53.16;95266.72;5067434;28;20433;-85
2023/08/03 11:30:06;;;;;;;1.63;0.70;;;;;;;28.36;54.13;95255.84;5071087;28;20078;-85
2023/08/03 11:32:33;;;;;;;3.50;0.70;;;;;;;28.56;54.24;95265.53;5066404;28;20024;-83
2023/08/03 11:35:04;;;;;;;1.33;0.50;;;;;;;27.45;54.92;95264.97;5072250;28;20108;-85
2023/08/03 11:37:34;;;;;;;3.15;0.50;;;;;;;28.19;53.84;95267.19;5052546;28;20025;-87
2023/08/03 11:40:03;;;;;;;3.78;1.30;;;;;;;27.38;55.91;95272.63;5057147;28;20612;-87
2023/08/03 11:42:30;;;;;;;8.18;3.90;;;;;;;28.15;52.28;95256.16;5053067;28;20467;-89
2023/08/03 11:44:55;;;;;;;94.03;53.70;;;;;;;28.75;52.29;95258.16;5073099;28;20078;-83
2023/08/03 11:47:44;;;;;;;8.30;3.95;;;;;;;28.17;51.45;95264.81;5071944;28;20035;-88
2023/08/03 11:50:10;;;;;;;8.75;3.10;;;;;;;28.76;50.88;95254.34;5070431;28;20032;-84
2023/08/03 11:52:42;;;;;;;4.82;2.33;;;;;;;28.10;50.74;95263.53;5049319;28;20069;-85
2023/08/03 11:55:08;;;;;;;9.77;2.72;;;;;;;28.09;51.58;95270.06;5057755;28;20040;-86
2023/08/03 12:00:18;;;;;;;4.85;1.55;;;;;;;28.79;50.93;95278.13;5062349;28;20078;-83
2023/08/03 12:02:45;;;;;;;3.42;0.80;;;;;;;28.29;53.01;95277.03;5070982;28;20028;-84
2023/08/03 12:05:13;;;;;;;3.30;1.05;;;;;;;28.24;53.61;95283.34;5062601;28;20013;-83
2023/08/03 12:07:42;;;;;;;2.30;0.63;;;;;;;27.95;51.99;95284.31;5066842;28;20085;-84